Hauptseite
METAR-TAF:

METAR-TAF

Flughäfen :

Posadas, Argentinien

Breite: 27-22S, Länge: 055-58W, Höhe: 131 m

Beobachtung

Neuester Wetterbericht von vor 57 Minuten, um 12:00 UTC
Wind 2 kt aus Nord
Temperatur 27°C
Luftfeuchtigkeit 74%
Luftdruck 1013 hPa
Sichtweite 10 km oder mehr
keine Wolken unter 1500 m und keine Kumulonimbus oder Gewitterwolken

METAR: SARP 101200Z 36002KT CAVOK 27/22 Q1013

Zeit: 09:57 (12:57 UTC)

Prognose

Neuester Wetterbericht von vor 1 Stunde und 57 Minuten, um 11:00 UTC
Gültige Prognose vom 10 um 12 UTC bis 11 um 12 UTC
Wind 5 kt aus Ost
Sichtweite: 8000 m
Leicht bewölkt in der Höhe von 3000 ft

TAF: SARP 101100Z 1012/1112 09005KT 8000 FEW030 TX35/1018Z TN21/1109Z

Wetterbeobachtungen und Prognosen von mehr als 4000 Flughäfen (METAR und TAF Bericht).

Die verfügbaren Stationen werden durch gelbe und rote Markierungen auf der Karte dargestellt.

Führen Sie die Maus auf sie, um den Namen der Station zu sehen.

Darauf klicken, um die Beobachtung von Wetterbeobachtungen und Prognosen zu sehen.

Um die Karte zu ändern : klicken Sie auf den grünen Tasten mit einem schwarzen Kreuz Zum Vergrößern, auf den grünen Button mit einem Gedankenstrich zu verkleinern, oder auf die grünen Pfeile für benachbarte Karten.


METAR-TAF: